Time;durP1;ratioP1;P1;durP2;ratioP2;P2;SDS_P1;SDS_P2;PMS_P1;PMS_P2;Temp;Humidity;BMP_temperature;BMP_pressure;BME280_temperature;BME280_humidity;BME280_pressure;Samples;Min_cycle;Max_cycle;Signal;HPM_P1;HPM_P2
2022/09/07 00:01:26;;;;;;;7.88;6.65;;;19.30;99.90;;;;;;5006373;28;20029;-73
2022/09/07 00:03:56;;;;;;;7.28;6.57;;;19.20;99.90;;;;;;4999264;28;20026;-73
2022/09/07 00:06:22;;;;;;;7.60;6.50;;;19.10;99.90;;;;;;4990574;28;20048;-73
2022/09/07 00:08:47;;;;;;;8.30;7.50;;;19.10;99.90;;;;;;5003302;28;20387;-72
2022/09/07 00:11:16;;;;;;;7.07;6.40;;;19.10;99.90;;;;;;5014110;28;20030;-73
2022/09/07 00:13:44;;;;;;;9.07;6.80;;;19.00;99.90;;;;;;4983496;28;21335;-73
2022/09/07 00:16:22;;;;;;;8.50;6.20;;;19.10;99.90;;;;;;4988143;28;20025;-74
2022/09/07 00:18:48;;;;;;;8.63;6.72;;;19.00;99.90;;;;;;4994260;28;20019;-74
2022/09/07 00:21:16;;;;;;;7.22;6.63;;;18.80;99.90;;;;;;4994341;28;20052;-74
2022/09/07 00:23:42;;;;;;;6.82;5.97;;;18.70;99.90;;;;;;5000963;28;20026;-72
2022/09/07 00:26:18;;;;;;;6.95;6.35;;;18.80;99.90;;;;;;5013681;28;20105;-74
2022/09/07 00:28:45;;;;;;;8.65;6.82;;;18.80;99.90;;;;;;5013610;28;20018;-73
2022/09/07 00:31:14;;;;;;;6.90;6.28;;;18.80;99.90;;;;;;4994526;28;20027;-73
2022/09/07 00:33:40;;;;;;;7.38;6.65;;;18.70;99.90;;;;;;5004958;28;20054;-73
2022/09/07 00:36:05;;;;;;;6.55;5.95;;;18.70;99.90;;;;;;4996079;28;20054;-73
2022/09/07 00:38:31;;;;;;;8.68;6.57;;;18.70;99.90;;;;;;5013562;28;20482;-74
2022/09/07 00:40:57;;;;;;;6.93;6.32;;;18.70;99.90;;;;;;5013489;28;20112;-74
2022/09/07 00:43:38;;;;;;;7.00;6.30;;;18.70;99.90;;;;;;5005186;28;20841;-74
2022/09/07 00:46:06;;;;;;;7.00;6.18;;;18.80;99.90;;;;;;4993523;28;20033;-73
2022/09/07 00:48:45;;;;;;;7.13;6.43;;;18.90;99.90;;;;;;4991221;28;20096;-74
2022/09/07 00:51:17;;;;;;;7.35;6.43;;;18.80;99.90;;;;;;4999923;28;20084;-73
2022/09/07 00:53:52;;;;;;;7.75;6.57;;;18.80;99.90;;;;;;5008010;28;20029;-73
2022/09/07 00:56:20;;;;;;;7.68;6.93;;;18.70;99.90;;;;;;5004669;28;20053;-74
2022/09/07 00:58:46;;;;;;;9.38;6.68;;;18.50;99.90;;;;;;5008685;28;20021;-74
2022/09/07 01:01:12;;;;;;;8.60;6.93;;;18.40;99.90;;;;;;5013088;28;20080;-73
2022/09/07 01:03:45;;;;;;;7.43;6.82;;;18.40;99.90;;;;;;4993459;28;20018;-74
2022/09/07 01:06:16;;;;;;;8.85;6.38;;;18.30;99.90;;;;;;5002883;28;20021;-74
2022/09/07 01:08:43;;;;;;;7.45;6.55;;;18.30;99.90;;;;;;5012789;28;20029;-73
2022/09/07 01:11:10;;;;;;;7.68;6.93;;;18.30;99.90;;;;;;5012881;28;20026;-73
2022/09/07 01:13:39;;;;;;;7.75;6.95;;;18.30;99.90;;;;;;4996248;28;20034;-73
2022/09/07 01:16:20;;;;;;;8.30;6.65;;;18.40;99.90;;;;;;5003792;28;20054;-72
2022/09/07 01:19:18;;;;;;;7.93;7.13;;;18.40;99.90;;;;;;5012691;28;20029;-72
2022/09/07 01:22:08;;;;;;;8.55;7.68;;;18.50;99.90;;;;;;5012694;28;20026;-72
2022/09/07 01:24:47;;;;;;;8.20;7.35;;;18.50;99.90;;;;;;5012636;28;20021;-73
2022/09/07 01:27:32;;;;;;;8.27;7.20;;;18.30;99.90;;;;;;5012274;28;20032;-72
2022/09/07 01:30:11;;;;;;;8.20;7.50;;;18.20;99.90;;;;;;5012607;28;20033;-72
2022/09/07 01:32:48;;;;;;;7.93;7.22;;;18.20;99.90;;;;;;5012640;28;20544;-72
2022/09/07 01:35:38;;;;;;;9.15;8.02;;;18.20;99.90;;;;;;5001520;28;20109;-71
2022/09/07 01:38:13;;;;;;;9.85;7.88;;;18.10;99.90;;;;;;4999307;28;20025;-72
2022/09/07 01:40:50;;;;;;;8.52;7.72;;;18.30;99.90;;;;;;4995589;28;20030;-72
2022/09/07 01:43:40;;;;;;;8.43;7.50;;;18.30;99.90;;;;;;4987981;28;20025;-72
2022/09/07 01:46:25;;;;;;;10.57;8.25;;;18.40;99.90;;;;;;5012260;28;20108;-72
2022/09/07 01:48:54;;;;;;;10.05;9.05;;;18.40;99.90;;;;;;5012200;28;20021;-72
2022/09/07 01:51:24;;;;;;;9.23;8.32;;;18.20;99.90;;;;;;5007608;28;20037;-72
2022/09/07 01:53:55;;;;;;;8.88;8.07;;;18.30;99.90;;;;;;4994892;28;20022;-72
2022/09/07 01:56:30;;;;;;;9.70;8.70;;;18.30;99.90;;;;;;5012083;28;20099;-74
2022/09/07 01:59:07;;;;;;;9.55;8.60;;;18.20;99.90;;;;;;5009490;28;20018;-74
2022/09/07 02:01:39;;;;;;;9.55;8.70;;;17.80;99.90;;;;;;4993378;28;20030;-74
2022/09/07 02:04:14;;;;;;;9.35;8.52;;;17.70;99.90;;;;;;5010491;28;20033;-73
2022/09/07 02:06:43;;;;;;;10.13;9.17;;;17.50;99.90;;;;;;5012000;28;20097;-73
2022/09/07 02:09:26;;;;;;;9.38;8.57;;;17.20;99.90;;;;;;4990851;28;20262;-73
2022/09/07 02:11:53;;;;;;;9.65;8.75;;;16.80;99.90;;;;;;4981223;28;20019;-73
2022/09/07 02:14:23;;;;;;;10.05;8.45;;;16.60;99.90;;;;;;5002571;28;20105;-73
2022/09/07 02:17:00;;;;;;;8.85;7.97;;;16.70;99.90;;;;;;5008684;28;20028;-72
2022/09/07 02:19:33;;;;;;;9.00;8.10;;;17.00;99.90;;;;;;4994246;28;20030;-73
2022/09/07 02:22:06;;;;;;;9.32;8.30;;;17.00;99.90;;;;;;5007337;28;20037;-72
2022/09/07 02:24:37;;;;;;;9.60;8.75;;;17.10;99.90;;;;;;4992325;28;20380;-72
2022/09/07 02:27:08;;;;;;;9.13;8.23;;;17.20;99.90;;;;;;4996137;28;20033;-71
2022/09/07 02:29:34;;;;;;;10.93;8.23;;;17.30;99.90;;;;;;5007017;28;20041;-72
2022/09/07 02:32:00;;;;;;;8.73;7.90;;;17.50;99.90;;;;;;5012438;28;20415;-72
2022/09/07 02:34:25;;;;;;;9.30;8.45;;;17.50;99.90;;;;;;5015798;28;20022;-72
2022/09/07 02:36:52;;;;;;;9.52;8.63;;;17.60;99.90;;;;;;5015645;28;20057;-71
2022/09/07 02:39:18;;;;;;;9.57;8.68;;;17.70;99.90;;;;;;5015601;28;20026;-72
2022/09/07 02:41:44;;;;;;;9.48;8.57;;;17.60;99.90;;;;;;5007686;28;20499;-72
2022/09/07 02:44:15;;;;;;;9.98;8.98;;;17.60;99.90;;;;;;5003125;28;20674;-71
2022/09/07 02:47:09;;;;;;;9.25;7.88;;;17.50;99.90;;;;;;4996511;28;20762;-73
2022/09/07 02:49:46;;;;;;;9.75;8.75;;;17.50;99.90;;;;;;4986017;28;20033;-72
2022/09/07 02:52:37;;;;;;;10.88;8.80;;;17.40;99.90;;;;;;5015501;28;20030;-72
2022/09/07 02:55:11;;;;;;;10.30;9.05;;;17.30;99.90;;;;;;5004233;28;20052;-73
2022/09/07 02:58:14;;;;;;;9.30;8.50;;;17.20;99.90;;;;;;5014320;28;20041;-73
2022/09/07 03:00:57;;;;;;;9.30;8.40;;;17.20;99.90;;;;;;5015203;28;20026;-71
2022/09/07 03:03:46;;;;;;;11.85;9.13;;;17.20;99.90;;;;;;5015298;28;20022;-71
2022/09/07 03:06:38;;;;;;;9.77;8.55;;;17.00;99.90;;;;;;5015181;28;20018;-72
2022/09/07 03:09:09;;;;;;;10.70;9.10;;;16.50;99.90;;;;;;4996341;28;20029;-72
2022/09/07 03:11:36;;;;;;;9.63;8.73;;;16.30;99.90;;;;;;4999201;28;20023;-72
2022/09/07 03:14:16;;;;;;;10.00;9.00;;;16.10;99.90;;;;;;4999782;28;20094;-72
2022/09/07 03:16:43;;;;;;;10.65;8.43;;;16.20;99.90;;;;;;5002408;28;20030;-72
2022/09/07 03:19:08;;;;;;;9.32;8.43;;;16.40;99.90;;;;;;5009332;28;20040;-72
2022/09/07 03:21:34;;;;;;;10.52;8.63;;;16.60;99.90;;;;;;5000364;28;20484;-72
2022/09/07 03:24:00;;;;;;;11.75;8.98;;;16.90;99.90;;;;;;4998782;28;20027;-72
2022/09/07 03:26:26;;;;;;;12.93;9.15;;;17.00;99.90;;;;;;5010394;28;20026;-72
2022/09/07 03:28:52;;;;;;;10.13;9.07;;;17.00;99.90;;;;;;5014635;28;20030;-72
2022/09/07 03:31:18;;;;;;;12.05;10.55;;;17.00;99.90;;;;;;5014734;28;20026;-72
2022/09/07 03:33:44;;;;;;;10.75;8.63;;;17.00;99.90;;;;;;5014745;28;20026;-72
2022/09/07 03:36:10;;;;;;;11.55;9.82;;;17.10;99.90;;;;;;5014514;28;20438;-72
2022/09/07 03:38:35;;;;;;;10.57;8.60;;;17.10;99.90;;;;;;5014392;28;20026;-72
2022/09/07 03:41:05;;;;;;;10.43;9.05;;;17.20;99.90;;;;;;5014526;28;20145;-72
2022/09/07 03:43:32;;;;;;;9.80;8.52;;;17.20;99.90;;;;;;5013443;28;20026;-71
2022/09/07 03:46:02;;;;;;;10.05;8.88;;;17.20;99.90;;;;;;5014323;28;20515;-72
2022/09/07 03:48:34;;;;;;;9.30;8.48;;;17.40;99.90;;;;;;4996726;28;20530;-71
2022/09/07 03:51:08;;;;;;;9.57;8.68;;;17.50;99.90;;;;;;5014357;28;20034;-72
2022/09/07 03:53:37;;;;;;;10.43;9.27;;;17.50;99.90;;;;;;5014404;28;20033;-71
2022/09/07 03:56:05;;;;;;;10.18;9.13;;;17.30;99.90;;;;;;5014069;28;20060;-73
2022/09/07 03:58:32;;;;;;;9.23;8.32;;;17.10;99.90;;;;;;5001347;28;20443;-72
2022/09/07 04:00:59;;;;;;;9.73;8.80;;;17.30;99.90;;;;;;4984426;28;20456;-72
2022/09/07 04:03:25;;;;;;;13.73;9.32;;;17.30;99.90;;;;;;4998236;28;20488;-71
2022/09/07 04:05:50;;;;;;;9.95;8.95;;;17.40;99.90;;;;;;5008224;28;20041;-72
2022/09/07 04:08:16;;;;;;;9.85;8.63;;;17.40;99.90;;;;;;4996339;28;20072;-72
2022/09/07 04:10:41;;;;;;;13.98;10.45;;;17.40;99.90;;;;;;5014015;28;20049;-73
2022/09/07 04:13:08;;;;;;;9.73;8.73;;;17.30;99.90;;;;;;4982572;28;20026;-72
2022/09/07 04:15:34;;;;;;;10.88;9.77;;;17.20;99.90;;;;;;5000670;28;20100;-73
2022/09/07 04:18:00;;;;;;;10.75;9.38;;;17.20;99.90;;;;;;5013700;28;20049;-72
2022/09/07 04:20:25;;;;;;;9.90;8.90;;;17.40;99.90;;;;;;5013721;28;20030;-72
2022/09/07 04:22:51;;;;;;;9.95;8.63;;;17.40;99.90;;;;;;5009951;28;20397;-72
2022/09/07 04:25:17;;;;;;;10.25;9.07;;;17.40;99.90;;;;;;5013712;28;20034;-72
2022/09/07 04:27:43;;;;;;;12.20;9.75;;;17.50;99.90;;;;;;5013520;28;20033;-73
2022/09/07 04:30:09;;;;;;;10.85;9.55;;;17.30;99.90;;;;;;4987810;28;20026;-72
2022/09/07 04:32:35;;;;;;;9.65;8.75;;;17.40;99.90;;;;;;5011449;28;20026;-72
2022/09/07 04:35:01;;;;;;;10.48;9.35;;;17.50;99.90;;;;;;5008252;28;20106;-72
2022/09/07 04:37:27;;;;;;;13.43;9.60;;;17.30;99.90;;;;;;5006956;28;20038;-72
2022/09/07 04:39:53;;;;;;;10.40;9.40;;;17.30;99.90;;;;;;5013429;28;20026;-72
2022/09/07 04:42:18;;;;;;;12.63;9.75;;;17.30;99.90;;;;;;5013468;28;20030;-72
2022/09/07 04:44:44;;;;;;;10.60;9.50;;;17.10;99.90;;;;;;5013391;28;20483;-72
2022/09/07 04:47:09;;;;;;;10.25;9.18;;;16.50;99.90;;;;;;4999891;28;20026;-72
2022/09/07 04:49:35;;;;;;;10.68;9.43;;;16.50;99.90;;;;;;5010252;28;20515;-72
2022/09/07 04:52:01;;;;;;;10.07;8.63;;;16.70;99.90;;;;;;4996109;28;20030;-72
2022/09/07 04:54:27;;;;;;;11.32;9.15;;;16.80;99.90;;;;;;4984449;28;20033;-72
2022/09/07 04:56:52;;;;;;;11.82;9.75;;;17.00;99.90;;;;;;5006136;28;20038;-72
2022/09/07 04:59:18;;;;;;;10.95;9.38;;;17.10;99.90;;;;;;5013077;28;20192;-72
2022/09/07 05:01:43;;;;;;;12.02;9.68;;;17.20;99.90;;;;;;5012976;28;20029;-72
2022/09/07 05:04:09;;;;;;;13.77;8.85;;;17.20;99.90;;;;;;5012884;28;20033;-72
2022/09/07 05:06:35;;;;;;;11.15;9.23;;;17.30;99.90;;;;;;4978935;28;20029;-72
2022/09/07 05:09:00;;;;;;;11.45;9.30;;;17.30;99.90;;;;;;4995113;28;20022;-72
2022/09/07 05:11:27;;;;;;;10.23;9.23;;;17.30;99.90;;;;;;5012904;28;20097;-71
2022/09/07 05:14:03;;;;;;;11.10;9.88;;;17.30;99.90;;;;;;5006226;28;20041;-71
2022/09/07 05:16:30;;;;;;;10.70;9.60;;;17.30;99.90;;;;;;4992541;28;20030;-72
2022/09/07 05:19:01;;;;;;;10.32;9.32;;;17.50;99.90;;;;;;5012437;28;20026;-72
2022/09/07 05:21:29;;;;;;;11.07;9.98;;;17.40;99.90;;;;;;5008417;28;20034;-71
2022/09/07 05:23:56;;;;;;;13.65;10.50;;;17.50;99.90;;;;;;4992090;28;20085;-72
2022/09/07 05:26:23;;;;;;;11.23;10.13;;;17.50;99.90;;;;;;5002038;28;20492;-72
2022/09/07 05:28:49;;;;;;;11.75;9.82;;;17.60;99.90;;;;;;4982171;28;20474;-71
2022/09/07 05:31:17;;;;;;;11.73;9.98;;;17.60;99.90;;;;;;5001773;28;20053;-71
2022/09/07 05:33:48;;;;;;;12.32;10.25;;;17.50;99.90;;;;;;4996291;28;20029;-71
2022/09/07 05:36:14;;;;;;;11.43;9.18;;;17.70;99.90;;;;;;4998913;28;20372;-71
2022/09/07 05:38:40;;;;;;;13.50;9.77;;;17.90;99.90;;;;;;5003139;28;20442;-71
2022/09/07 05:41:17;;;;;;;14.02;8.73;;;17.80;99.90;;;;;;5008880;28;20109;-72
2022/09/07 05:43:44;;;;;;;12.40;9.32;;;17.90;99.90;;;;;;4992547;28;20480;-71
2022/09/07 05:46:10;;;;;;;12.55;8.95;;;17.80;99.90;;;;;;4997361;28;20052;-71
2022/09/07 05:48:36;;;;;;;11.57;9.15;;;17.80;99.90;;;;;;4994113;28;20032;-71
2022/09/07 05:51:03;;;;;;;11.32;8.82;;;17.80;99.90;;;;;;5009868;28;20109;-72
2022/09/07 05:53:29;;;;;;;10.70;9.10;;;17.90;99.90;;;;;;5011966;28;20650;-71
2022/09/07 05:55:59;;;;;;;13.48;9.02;;;18.00;99.90;;;;;;5026238;23;20133;-74
2022/09/07 05:58:25;;;;;;;13.52;8.80;;;18.10;99.90;;;;;;5005493;28;20075;-74
2022/09/07 06:00:50;;;;;;;11.80;8.70;;;18.10;99.90;;;;;;5010529;28;20132;-70
2022/09/07 06:03:16;;;;;;;12.10;7.97;;;18.20;99.90;;;;;;5010797;28;20111;-72
2022/09/07 06:05:41;;;;;;;14.20;8.27;;;18.30;99.90;;;;;;5008675;28;20026;-73
2022/09/07 06:08:07;;;;;;;9.52;7.97;;;18.40;99.90;;;;;;4991593;28;20033;-73
2022/09/07 06:10:34;;;;;;;12.63;7.75;;;18.50;99.90;;;;;;4993208;28;20030;-72
2022/09/07 06:12:59;;;;;;;11.55;7.55;;;18.60;99.90;;;;;;5004434;28;20100;-73
2022/09/07 06:15:25;;;;;;;9.98;7.88;;;18.70;99.90;;;;;;4998893;28;20105;-72
2022/09/07 06:17:50;;;;;;;12.93;7.93;;;18.70;99.90;;;;;;4999744;28;20041;-73
2022/09/07 06:20:16;;;;;;;10.68;8.10;;;18.70;99.90;;;;;;4992203;28;20563;-73
2022/09/07 06:22:42;;;;;;;11.13;7.85;;;18.60;99.90;;;;;;5004621;28;20030;-72
2022/09/07 06:25:07;;;;;;;10.90;7.65;;;18.80;99.90;;;;;;4993086;28;20026;-73
2022/09/07 06:27:33;;;;;;;11.05;7.88;;;19.00;99.90;;;;;;5002985;28;20022;-73
2022/09/07 06:29:59;;;;;;;10.43;6.95;;;19.20;99.90;;;;;;5006377;28;20034;-72
2022/09/07 06:32:24;;;;;;;9.77;7.40;;;19.30;99.90;;;;;;5002948;28;20045;-72
2022/09/07 06:34:50;;;;;;;11.52;7.70;;;19.40;99.90;;;;;;4993299;28;20361;-72
2022/09/07 06:37:16;;;;;;;10.38;6.90;;;19.50;99.90;;;;;;4991926;28;20106;-73
2022/09/07 06:39:41;;;;;;;11.88;6.68;;;19.50;99.90;;;;;;5010582;28;20476;-73
2022/09/07 06:42:07;;;;;;;8.63;6.85;;;19.50;99.90;;;;;;5000094;28;20040;-73
2022/09/07 06:44:32;;;;;;;10.50;6.97;;;19.50;99.90;;;;;;4991978;28;20059;-73
2022/09/07 06:46:58;;;;;;;12.20;7.43;;;19.50;99.90;;;;;;5003216;28;20535;-73
2022/09/07 06:49:24;;;;;;;9.43;7.30;;;19.60;99.90;;;;;;4993639;28;20056;-73
2022/09/07 06:51:50;;;;;;;12.15;7.68;;;19.60;99.90;;;;;;5003413;28;20093;-73
2022/09/07 06:54:16;;;;;;;10.55;6.70;;;19.60;99.90;;;;;;4993862;28;20105;-72
2022/09/07 06:56:42;;;;;;;9.93;7.43;;;19.70;99.90;;;;;;4990880;28;20037;-73
2022/09/07 06:59:08;;;;;;;11.93;7.43;;;19.80;99.90;;;;;;4991810;28;20093;-73
2022/09/07 07:01:33;;;;;;;14.75;6.88;;;19.80;99.90;;;;;;4991955;28;20472;-73
2022/09/07 07:04:00;;;;;;;13.35;7.97;;;19.80;99.90;;;;;;5005092;28;20057;-73
2022/09/07 07:06:36;;;;;;;12.35;7.15;;;19.80;99.90;;;;;;4991932;28;20073;-72
2022/09/07 07:09:04;;;;;;;10.60;7.25;;;19.70;99.90;;;;;;5000520;28;20361;-73
2022/09/07 07:11:30;;;;;;;18.75;7.63;;;19.90;99.90;;;;;;5003979;28;20025;-73
2022/09/07 07:13:56;;;;;;;13.02;7.55;;;19.80;99.90;;;;;;4991556;28;20023;-72
2022/09/07 07:16:22;;;;;;;10.48;7.55;;;19.80;99.90;;;;;;5004630;28;20375;-73
2022/09/07 07:18:51;;;;;;;11.13;7.00;;;19.70;99.90;;;;;;5005486;28;20519;-73
2022/09/07 07:21:17;;;;;;;9.98;6.80;;;19.70;99.90;;;;;;4995157;28;20054;-73
2022/09/07 07:23:43;;;;;;;12.23;6.82;;;19.60;99.90;;;;;;4995264;28;20522;-73
2022/09/07 07:26:14;;;;;;;12.32;6.88;;;19.60;99.90;;;;;;4995434;28;20369;-73
2022/09/07 07:28:48;;;;;;;9.63;6.53;;;19.60;99.90;;;;;;4995167;28;20026;-73
2022/09/07 07:31:15;;;;;;;9.48;7.00;;;19.80;99.90;;;;;;4997122;28;20387;-72
2022/09/07 07:33:42;;;;;;;9.30;6.53;;;20.00;99.90;;;;;;5013567;28;20030;-73
2022/09/07 07:36:21;;;;;;;9.95;6.85;;;20.30;99.90;;;;;;5013513;28;20033;-73
2022/09/07 07:38:48;;;;;;;9.15;6.68;;;20.20;99.90;;;;;;5014589;28;20026;-73
2022/09/07 07:41:15;;;;;;;10.82;6.35;;;20.10;99.90;;;;;;4996234;28;20428;-73
2022/09/07 07:43:41;;;;;;;10.40;6.25;;;20.30;99.90;;;;;;4993753;28;20475;-73
2022/09/07 07:46:07;;;;;;;10.10;6.28;;;20.40;99.90;;;;;;5008132;28;20058;-73
2022/09/07 07:48:34;;;;;;;11.52;6.80;;;20.60;99.90;;;;;;5005180;28;20108;-73
2022/09/07 07:51:02;;;;;;;7.03;6.18;;;20.70;99.90;;;;;;5001370;28;20029;-73
2022/09/07 07:53:29;;;;;;;11.25;6.75;;;20.80;99.90;;;;;;5015165;28;20025;-73
2022/09/07 07:55:58;;;;;;;9.43;6.25;;;20.70;99.90;;;;;;5000217;28;20045;-72
2022/09/07 07:58:26;;;;;;;10.60;5.90;;;20.70;99.90;;;;;;5003222;28;20062;-73
2022/09/07 08:00:53;;;;;;;10.95;6.38;;;20.90;99.90;;;;;;4999340;28;20022;-73
2022/09/07 08:03:19;;;;;;;10.35;6.22;;;20.90;99.90;;;;;;5003005;28;20023;-73
2022/09/07 08:05:45;;;;;;;9.75;5.10;;;21.30;99.90;;;;;;4994392;28;20068;-73
2022/09/07 08:08:10;;;;;;;6.07;4.93;;;21.20;99.90;;;;;;4999576;28;20026;-71
2022/09/07 08:10:37;;;;;;;10.38;5.40;;;21.20;99.90;;;;;;4999420;28;20037;-71
2022/09/07 08:13:03;;;;;;;9.48;5.82;;;21.20;99.90;;;;;;5013727;28;20034;-73
2022/09/07 08:15:29;;;;;;;9.02;5.18;;;21.30;99.90;;;;;;5000133;28;20034;-73
2022/09/07 08:17:56;;;;;;;10.27;5.57;;;21.60;99.90;;;;;;5013489;28;20164;-73
2022/09/07 08:20:22;;;;;;;8.98;4.65;;;21.80;99.90;;;;;;5008029;28;20384;-72
2022/09/07 08:22:49;;;;;;;10.73;5.30;;;22.00;99.90;;;;;;4994316;28;20101;-72
2022/09/07 08:25:16;;;;;;;5.65;5.05;;;21.90;99.90;;;;;;4994230;28;20030;-72
2022/09/07 08:27:41;;;;;;;10.07;5.60;;;21.80;99.90;;;;;;4994037;28;20033;-73
2022/09/07 08:30:08;;;;;;;9.10;4.55;;;21.90;99.90;;;;;;4999585;28;20034;-72
2022/09/07 08:32:34;;;;;;;7.88;4.93;;;21.80;99.90;;;;;;5012523;28;20026;-73
2022/09/07 08:34:59;;;;;;;7.35;5.05;;;22.10;99.90;;;;;;5000557;28;20056;-72
2022/09/07 08:37:25;;;;;;;8.52;4.70;;;22.40;99.90;;;;;;5013499;28;20029;-73
2022/09/07 08:39:50;;;;;;;7.07;4.78;;;22.40;99.90;;;;;;4994504;28;20089;-72
2022/09/07 08:42:34;;;;;;;8.30;4.63;;;22.50;99.90;;;;;;4994126;28;20037;-73
2022/09/07 08:45:05;;;;;;;7.82;4.60;;;22.90;99.90;;;;;;4982959;28;20034;-72
2022/09/07 08:47:47;;;;;;;6.90;3.80;;;23.00;99.90;;;;;;4993804;28;20089;-73
2022/09/07 08:50:22;;;;;;;10.60;4.47;;;22.80;99.90;;;;;;4992750;28;20040;-73
2022/09/07 08:52:56;;;;;;;5.82;4.00;;;22.90;99.90;;;;;;4992516;28;20492;-73
2022/09/07 08:55:33;;;;;;;6.38;3.95;;;22.80;99.90;;;;;;4992284;28;20504;-73
2022/09/07 08:58:13;;;;;;;9.80;4.57;;;23.20;99.90;;;;;;4993513;28;20034;-73
2022/09/07 09:00:38;;;;;;;8.80;4.70;;;23.20;99.90;;;;;;4993476;28;20026;-73
2022/09/07 09:03:13;;;;;;;6.28;4.30;;;23.30;99.90;;;;;;4993744;28;20027;-73
2022/09/07 09:05:49;;;;;;;7.65;3.95;;;23.40;99.90;;;;;;4993563;28;20072;-73
2022/09/07 09:08:42;;;;;;;6.82;4.63;;;23.30;99.90;;;;;;4992343;28;20041;-73
2022/09/07 09:11:15;;;;;;;8.30;4.47;;;23.40;99.90;;;;;;4983365;28;20030;-73
2022/09/07 09:13:53;;;;;;;7.03;4.13;;;23.90;99.90;;;;;;4993190;28;20101;-73
2022/09/07 09:16:30;;;;;;;8.30;4.53;;;23.60;99.90;;;;;;5003844;28;20546;-73
2022/09/07 09:19:23;;;;;;;7.38;4.38;;;23.20;99.90;;;;;;4979295;28;20030;-73
2022/09/07 09:22:03;;;;;;;10.50;3.92;;;23.40;99.90;;;;;;5000301;28;20030;-72
2022/09/07 09:24:36;;;;;;;8.40;3.97;;;23.80;99.90;;;;;;4991449;28;20022;-73
2022/09/07 09:27:02;;;;;;;7.65;3.90;;;24.20;99.90;;;;;;4979754;28;20105;-73
2022/09/07 09:29:27;;;;;;;5.78;3.60;;;23.80;99.90;;;;;;4992935;28;20449;-73
2022/09/07 09:31:53;;;;;;;7.65;3.35;;;24.20;99.90;;;;;;4993020;28;20030;-72
2022/09/07 09:34:19;;;;;;;5.00;2.92;;;24.00;99.90;;;;;;4993187;28;20080;-73
2022/09/07 09:36:55;;;;;;;6.03;3.20;;;23.90;99.90;;;;;;5011131;28;20534;-72
2022/09/07 09:39:34;;;;;;;4.70;3.25;;;23.90;99.90;;;;;;5011301;28;20025;-74
2022/09/07 09:42:12;;;;;;;5.10;3.60;;;24.40;99.90;;;;;;5012507;28;20033;-73
2022/09/07 09:44:38;;;;;;;6.55;3.28;;;24.20;99.90;;;;;;5011203;28;20026;-73
2022/09/07 09:47:05;;;;;;;7.68;3.55;;;23.90;99.90;;;;;;5012126;28;20387;-73
2022/09/07 09:49:35;;;;;;;6.72;3.75;;;23.90;99.90;;;;;;5011044;28;20030;-72
2022/09/07 09:52:04;;;;;;;6.97;3.47;;;24.00;99.90;;;;;;5012275;28;20032;-72
2022/09/07 09:54:36;;;;;;;6.10;3.58;;;24.40;99.90;;;;;;5012275;28;20030;-72
2022/09/07 09:57:02;;;;;;;8.07;4.10;;;24.40;99.90;;;;;;5011975;28;20080;-72
2022/09/07 09:59:31;;;;;;;7.30;3.90;;;24.30;99.90;;;;;;5010821;28;20061;-72
2022/09/07 10:01:57;;;;;;;5.55;3.95;;;24.80;99.90;;;;;;5011079;28;20383;-72
2022/09/07 10:04:22;;;;;;;7.05;3.67;;;25.00;99.90;;;;;;5012186;28;20022;-72
2022/09/07 10:06:56;;;;;;;5.95;3.97;;;25.50;99.90;;;;;;4997752;28;20018;-72
2022/09/07 10:09:27;;;;;;;5.68;3.35;;;25.50;99.90;;;;;;4992415;28;20026;-72
2022/09/07 10:12:01;;;;;;;5.05;3.13;;;25.30;99.90;;;;;;4992465;28;20034;-72
2022/09/07 10:14:43;;;;;;;6.18;3.45;;;25.10;99.90;;;;;;4991106;28;20034;-72
2022/09/07 10:17:30;;;;;;;4.93;2.30;;;25.10;99.90;;;;;;4997912;28;20030;-72
2022/09/07 10:20:23;;;;;;;6.80;2.60;;;24.80;99.90;;;;;;5010551;28;20117;-71
2022/09/07 10:22:51;;;;;;;6.22;2.40;;;24.70;99.90;;;;;;4995521;28;20045;-73
2022/09/07 10:25:40;;;;;;;6.05;2.30;;;24.70;99.90;;;;;;5011462;28;20375;-72
2022/09/07 10:28:09;;;;;;;4.85;2.20;;;24.50;99.90;;;;;;5011583;28;20579;-70
2022/09/07 10:30:46;;;;;;;6.13;2.30;;;24.70;99.90;;;;;;5011882;28;20026;-72
2022/09/07 10:33:20;;;;;;;4.53;2.10;;;24.90;99.90;;;;;;5011780;28;20454;-73
2022/09/07 10:36:15;;;;;;;4.55;2.20;;;25.20;99.90;;;;;;5011723;28;20022;-73
2022/09/07 10:38:58;;;;;;;5.50;2.45;;;25.10;99.90;;;;;;5010634;28;20030;-72
2022/09/07 10:41:37;;;;;;;8.95;2.60;;;25.20;99.90;;;;;;5010370;28;20108;-72
2022/09/07 10:44:14;;;;;;;5.55;2.10;;;25.10;99.90;;;;;;5011607;28;20018;-72
2022/09/07 10:47:00;;;;;;;9.93;2.50;;;24.90;99.90;;;;;;5010328;28;20022;-72
2022/09/07 10:49:40;;;;;;;7.93;2.58;;;25.10;99.90;;;;;;5003786;28;20027;-72
2022/09/07 10:52:31;;;;;;;5.13;2.35;;;25.00;99.90;;;;;;4990716;28;20026;-72
2022/09/07 10:55:04;;;;;;;6.47;2.33;;;25.00;99.90;;;;;;4989077;28;20030;-72
2022/09/07 10:57:57;;;;;;;4.20;2.15;;;24.90;99.90;;;;;;4998705;28;20500;-72
2022/09/07 11:00:24;;;;;;;5.93;2.72;;;25.00;99.90;;;;;;5015430;28;20034;-72
2022/09/07 11:02:55;;;;;;;4.57;2.60;;;25.00;99.90;;;;;;5006229;28;20473;-73
2022/09/07 11:05:47;;;;;;;4.60;2.20;;;24.90;99.90;;;;;;4994524;28;21498;-72
2022/09/07 11:08:33;;;;;;;7.82;3.20;;;25.10;99.90;;;;;;5006315;28;20160;-72
2022/09/07 11:11:13;;;;;;;8.10;2.63;;;25.10;99.90;;;;;;5013940;28;20496;-73
2022/09/07 11:13:42;;;;;;;3.85;2.33;;;25.20;99.90;;;;;;4996100;28;20022;-73
2022/09/07 11:16:15;;;;;;;5.65;2.33;;;25.30;99.90;;;;;;4995095;28;20030;-72
2022/09/07 11:18:59;;;;;;;3.90;2.15;;;25.70;99.90;;;;;;4994613;28;20489;-73
2022/09/07 11:21:38;;;;;;;6.18;2.28;;;26.20;99.90;;;;;;4995486;28;20042;-75
2022/09/07 11:24:10;;;;;;;4.88;2.13;;;26.70;99.90;;;;;;4994302;28;20031;-73
2022/09/07 11:26:44;;;;;;;9.25;2.50;;;26.60;99.90;;;;;;5012545;28;20014;-72
2022/09/07 11:29:24;;;;;;;5.40;2.55;;;26.00;99.90;;;;;;5014735;28;20053;-72
2022/09/07 11:31:56;;;;;;;5.50;2.55;;;25.60;99.90;;;;;;5014920;28;20091;-73
2022/09/07 11:34:24;;;;;;;5.25;2.35;;;25.30;99.90;;;;;;5014878;28;20030;-73
2022/09/07 11:37:01;;;;;;;7.68;2.33;;;25.10;99.90;;;;;;5014541;28;20163;-72
2022/09/07 11:39:42;;;;;;;5.80;2.28;;;25.00;99.90;;;;;;5014534;28;20059;-71
2022/09/07 11:42:20;;;;;;;6.07;2.90;;;25.30;99.90;;;;;;5014791;28;20030;-72
2022/09/07 11:44:55;;;;;;;4.93;2.63;;;26.00;99.90;;;;;;5014645;28;20164;-72
2022/09/07 11:47:32;;;;;;;5.00;2.10;;;26.70;99.90;;;;;;5014300;28;20037;-68
2022/09/07 11:49:58;;;;;;;4.75;2.25;;;27.00;99.90;;;;;;5014503;28;20604;-69
2022/09/07 11:52:40;;;;;;;6.75;2.20;;;27.20;99.90;;;;;;5014400;28;20496;-69
2022/09/07 11:55:19;;;;;;;4.43;2.25;;;27.60;99.90;;;;;;5014298;28;20095;-69
2022/09/07 11:58:18;;;;;;;3.55;2.08;;;27.70;99.90;;;;;;5028221;22;20136;-76
2022/09/07 12:01:02;;;;;;;6.10;2.20;;;27.50;99.90;;;;;;5026083;28;20037;-75
2022/09/07 12:04:08;;;;;;;8.43;2.80;;;28.10;99.90;;;;;;5034135;28;20034;-74
2022/09/07 12:07:03;;;;;;;4.82;2.33;;;27.50;99.90;;;;;;5010040;28;20056;-75
2022/09/07 12:09:34;;;;;;;4.45;2.30;;;26.80;99.90;;;;;;5001963;28;20079;-75
2022/09/07 12:12:08;;;;;;;6.30;2.22;;;27.30;99.90;;;;;;5001247;28;20053;-76
2022/09/07 12:15:08;;;;;;;8.02;2.40;;;28.50;99.90;;;;;;5002779;28;20027;-75
2022/09/07 12:17:45;;;;;;;5.25;2.40;;;28.60;99.90;;;;;;4983494;28;20034;-76
2022/09/07 12:20:24;;;;;;;5.97;2.70;;;27.20;99.90;;;;;;5014015;28;20022;-75
2022/09/07 12:23:01;;;;;;;4.63;2.50;;;27.60;99.90;;;;;;5001380;28;20023;-75
2022/09/07 12:25:28;;;;;;;3.92;2.28;;;27.50;99.90;;;;;;4987710;28;20550;-77
2022/09/07 12:27:54;;;;;;;6.82;2.58;;;28.50;99.90;;;;;;5006933;28;20030;-76
2022/09/07 12:30:20;;;;;;;7.75;2.47;;;29.30;99.90;;;;;;5013825;28;20030;-75
2022/09/07 12:32:54;;;;;;;5.47;2.40;;;29.90;99.90;;;;;;5000700;28;20555;-77
2022/09/07 12:35:28;;;;;;;6.75;2.67;;;29.70;99.90;;;;;;5004710;28;20030;-76
2022/09/07 12:37:59;;;;;;;7.13;2.60;;;30.70;99.90;;;;;;5010502;28;20033;-76
2022/09/07 12:51:38;;;;;;;5.63;2.50;;;27.70;99.90;;;;;;5109588;27;20308;-74
2022/09/07 12:54:15;;;;;;;4.05;2.67;;;27.40;99.90;;;;;;5109485;28;20439;-74
2022/09/07 12:56:45;;;;;;;5.95;2.70;;;27.50;99.90;;;;;;5109346;28;20077;-75
2022/09/07 12:59:28;;;;;;;4.80;2.50;;;27.50;99.90;;;;;;5097843;28;20024;-74
2022/09/07 13:02:20;;;;;;;5.57;2.53;;;27.30;99.90;;;;;;5081546;28;20028;-74
2022/09/07 13:05:05;;;;;;;5.72;2.30;;;27.40;99.90;;;;;;5089064;28;20028;-76
2022/09/07 13:07:34;;;;;;;8.40;2.33;;;27.30;99.90;;;;;;5088732;28;20020;-74
2022/09/07 13:10:02;;;;;;;9.30;2.65;;;27.90;99.90;;;;;;5089247;28;20409;-74
2022/09/07 13:12:40;;;;;;;10.52;3.42;;;27.40;99.90;;;;;;5106871;28;20404;-74
2022/09/07 13:15:06;;;;;;;7.38;2.53;;;27.20;99.90;;;;;;5090844;28;20104;-74
2022/09/07 13:17:35;;;;;;;6.97;3.72;;;27.10;99.90;;;;;;5085085;28;20393;-74